sensor_id;sensor_type;location;lat;lon;timestamp;pressure;altitude;pressure_sealevel;temperature;humidity
18167;BME280;9208;42.688;23.404;2022-09-09T00:01:49;95683.13;;;21.15;94.85
18167;BME280;9208;42.688;23.404;2022-09-09T00:09:31;95682.69;;;21.11;95.80
18167;BME280;9208;42.688;23.404;2022-09-09T00:12:11;95677.84;;;21.11;95.37
18167;BME280;9208;42.688;23.404;2022-09-09T00:19:58;95687.50;;;21.10;96.36
18167;BME280;9208;42.688;23.404;2022-09-09T00:22:28;95684.97;;;20.99;98.05
18167;BME280;9208;42.688;23.404;2022-09-09T00:25:03;95681.09;;;21.02;98.50
18167;BME280;9208;42.688;23.404;2022-09-09T00:27:47;95675.53;;;21.02;100.00
18167;BME280;9208;42.688;23.404;2022-09-09T00:32:39;95660.97;;;20.96;100.00
18167;BME280;9208;42.688;23.404;2022-09-09T00:35:22;95651.44;;;20.92;100.00
18167;BME280;9208;42.688;23.404;2022-09-09T00:37:52;95650.69;;;20.91;100.00
18167;BME280;9208;42.688;23.404;2022-09-09T00:43:31;95645.44;;;20.88;100.00
18167;BME280;9208;42.688;23.404;2022-09-09T00:56:50;95653.94;;;20.69;100.00
18167;BME280;9208;42.688;23.404;2022-09-09T01:02:16;95650.97;;;20.67;100.00
18167;BME280;9208;42.688;23.404;2022-09-09T01:04:43;95646.88;;;20.68;100.00
18167;BME280;9208;42.688;23.404;2022-09-09T01:07:17;95654.72;;;20.70;100.00
18167;BME280;9208;42.688;23.404;2022-09-09T01:09:56;95643.44;;;20.62;100.00
18167;BME280;9208;42.688;23.404;2022-09-09T01:12:30;95649.47;;;20.53;100.00
18167;BME280;9208;42.688;23.404;2022-09-09T01:15:28;95645.00;;;20.50;100.00
18167;BME280;9208;42.688;23.404;2022-09-09T01:18:05;95651.63;;;20.47;100.00
18167;BME280;9208;42.688;23.404;2022-09-09T01:20:54;95657.41;;;20.49;100.00
18167;BME280;9208;42.688;23.404;2022-09-09T01:28:37;95648.41;;;20.43;99.56
18167;BME280;9208;42.688;23.404;2022-09-09T01:31:05;95645.75;;;20.38;99.87
18167;BME280;9208;42.688;23.404;2022-09-09T01:33:32;95648.97;;;20.29;99.89
18167;BME280;9208;42.688;23.404;2022-09-09T01:36:05;95653.47;;;20.19;100.00
18167;BME280;9208;42.688;23.404;2022-09-09T01:38:34;95645.22;;;20.13;100.00
18167;BME280;9208;42.688;23.404;2022-09-09T01:41:01;95648.75;;;20.14;100.00
18167;BME280;9208;42.688;23.404;2022-09-09T01:43:27;95656.59;;;20.15;100.00
18167;BME280;9208;42.688;23.404;2022-09-09T01:45:56;95663.88;;;20.18;100.00
18167;BME280;9208;42.688;23.404;2022-09-09T01:48:24;95658.72;;;20.22;99.93
18167;BME280;9208;42.688;23.404;2022-09-09T01:50:50;95661.38;;;20.28;99.18
18167;BME280;9208;42.688;23.404;2022-09-09T01:53:18;95667.72;;;20.28;99.11
18167;BME280;9208;42.688;23.404;2022-09-09T01:56:50;95671.22;;;20.29;99.35
18167;BME280;9208;42.688;23.404;2022-09-09T02:07:28;95664.50;;;20.24;99.49
18167;BME280;9208;42.688;23.404;2022-09-09T02:10:12;95668.25;;;20.27;99.22
18167;BME280;9208;42.688;23.404;2022-09-09T02:12:43;95656.91;;;20.12;100.00
18167;BME280;9208;42.688;23.404;2022-09-09T02:15:28;95661.78;;;20.06;100.00
18167;BME280;9208;42.688;23.404;2022-09-09T02:17:57;95652.28;;;20.01;100.00
18167;BME280;9208;42.688;23.404;2022-09-09T02:20:24;95647.03;;;19.98;100.00
18167;BME280;9208;42.688;23.404;2022-09-09T02:22:53;95651.31;;;19.99;100.00
18167;BME280;9208;42.688;23.404;2022-09-09T02:25:21;95640.72;;;19.97;100.00
18167;BME280;9208;42.688;23.404;2022-09-09T02:27:49;95643.94;;;20.01;100.00
18167;BME280;9208;42.688;23.404;2022-09-09T02:30:16;95645.94;;;20.01;100.00
18167;BME280;9208;42.688;23.404;2022-09-09T02:32:43;95634.91;;;19.95;100.00
18167;BME280;9208;42.688;23.404;2022-09-09T02:35:14;95645.75;;;19.99;100.00
18167;BME280;9208;42.688;23.404;2022-09-09T02:37:41;95649.25;;;19.99;100.00
18167;BME280;9208;42.688;23.404;2022-09-09T02:40:10;95649.16;;;20.05;100.00
18167;BME280;9208;42.688;23.404;2022-09-09T02:42:40;95651.09;;;19.97;100.00
18167;BME280;9208;42.688;23.404;2022-09-09T02:45:07;95655.69;;;19.94;100.00
18167;BME280;9208;42.688;23.404;2022-09-09T02:47:35;95663.50;;;19.83;100.00
18167;BME280;9208;42.688;23.404;2022-09-09T02:50:34;95661.88;;;19.74;100.00
18167;BME280;9208;42.688;23.404;2022-09-09T02:53:16;95668.75;;;19.73;100.00
18167;BME280;9208;42.688;23.404;2022-09-09T02:55:59;95671.59;;;19.68;100.00
18167;BME280;9208;42.688;23.404;2022-09-09T02:58:29;95670.56;;;19.71;100.00
18167;BME280;9208;42.688;23.404;2022-09-09T03:00:54;95665.16;;;19.60;100.00
18167;BME280;9208;42.688;23.404;2022-09-09T03:03:23;95660.81;;;19.64;100.00
18167;BME280;9208;42.688;23.404;2022-09-09T03:05:49;95649.97;;;19.61;100.00
18167;BME280;9208;42.688;23.404;2022-09-09T03:08:15;95661.63;;;19.59;100.00
18167;BME280;9208;42.688;23.404;2022-09-09T03:10:41;95668.34;;;19.51;100.00
18167;BME280;9208;42.688;23.404;2022-09-09T03:13:07;95674.97;;;19.48;100.00
18167;BME280;9208;42.688;23.404;2022-09-09T03:15:33;95674.00;;;19.45;100.00
18167;BME280;9208;42.688;23.404;2022-09-09T03:17:59;95671.91;;;19.51;100.00
18167;BME280;9208;42.688;23.404;2022-09-09T03:20:26;95667.91;;;19.47;100.00
18167;BME280;9208;42.688;23.404;2022-09-09T03:22:52;95677.97;;;19.50;100.00
18167;BME280;9208;42.688;23.404;2022-09-09T03:25:19;95671.97;;;19.46;100.00
18167;BME280;9208;42.688;23.404;2022-09-09T03:27:44;95668.75;;;19.42;100.00
18167;BME280;9208;42.688;23.404;2022-09-09T03:30:10;95664.59;;;19.48;100.00
18167;BME280;9208;42.688;23.404;2022-09-09T03:32:36;95659.03;;;19.48;100.00
18167;BME280;9208;42.688;23.404;2022-09-09T03:35:02;95666.09;;;19.49;100.00
18167;BME280;9208;42.688;23.404;2022-09-09T03:37:27;95660.78;;;19.51;100.00
18167;BME280;9208;42.688;23.404;2022-09-09T03:39:53;95668.78;;;19.55;100.00
18167;BME280;9208;42.688;23.404;2022-09-09T03:42:20;95668.47;;;19.58;100.00
18167;BME280;9208;42.688;23.404;2022-09-09T03:44:46;95668.28;;;19.56;100.00
18167;BME280;9208;42.688;23.404;2022-09-09T03:47:19;95670.09;;;19.54;100.00
18167;BME280;9208;42.688;23.404;2022-09-09T03:49:46;95664.00;;;19.55;100.00
18167;BME280;9208;42.688;23.404;2022-09-09T03:52:13;95673.38;;;19.52;100.00
18167;BME280;9208;42.688;23.404;2022-09-09T03:54:39;95670.38;;;19.50;100.00
18167;BME280;9208;42.688;23.404;2022-09-09T03:57:06;95677.91;;;19.55;100.00
18167;BME280;9208;42.688;23.404;2022-09-09T03:59:32;95677.97;;;19.50;100.00
18167;BME280;9208;42.688;23.404;2022-09-09T04:02:00;95681.50;;;19.50;100.00
18167;BME280;9208;42.688;23.404;2022-09-09T04:04:25;95676.06;;;19.45;100.00
18167;BME280;9208;42.688;23.404;2022-09-09T04:06:53;95675.59;;;19.41;100.00
18167;BME280;9208;42.688;23.404;2022-09-09T04:09:19;95691.97;;;19.44;100.00
18167;BME280;9208;42.688;23.404;2022-09-09T04:11:44;95688.13;;;19.47;100.00
18167;BME280;9208;42.688;23.404;2022-09-09T04:14:11;95681.28;;;19.48;100.00
18167;BME280;9208;42.688;23.404;2022-09-09T04:16:38;95688.22;;;19.42;100.00
18167;BME280;9208;42.688;23.404;2022-09-09T04:19:04;95686.84;;;19.48;100.00
18167;BME280;9208;42.688;23.404;2022-09-09T04:21:31;95682.56;;;19.47;100.00
18167;BME280;9208;42.688;23.404;2022-09-09T04:23:57;95676.16;;;19.52;100.00
18167;BME280;9208;42.688;23.404;2022-09-09T04:26:22;95678.63;;;19.56;100.00
18167;BME280;9208;42.688;23.404;2022-09-09T04:28:48;95674.03;;;19.58;100.00
18167;BME280;9208;42.688;23.404;2022-09-09T04:31:18;95673.94;;;19.64;100.00
18167;BME280;9208;42.688;23.404;2022-09-09T04:33:45;95678.66;;;19.69;100.00
18167;BME280;9208;42.688;23.404;2022-09-09T04:36:11;95676.41;;;19.67;100.00
18167;BME280;9208;42.688;23.404;2022-09-09T04:38:37;95675.97;;;19.63;100.00
18167;BME280;9208;42.688;23.404;2022-09-09T04:41:03;95675.44;;;19.65;100.00
18167;BME280;9208;42.688;23.404;2022-09-09T04:43:28;95677.91;;;19.68;100.00
18167;BME280;9208;42.688;23.404;2022-09-09T04:45:56;95686.25;;;19.68;100.00
18167;BME280;9208;42.688;23.404;2022-09-09T04:48:21;95687.66;;;19.75;100.00
18167;BME280;9208;42.688;23.404;2022-09-09T04:51:01;95683.16;;;19.72;100.00
18167;BME280;9208;42.688;23.404;2022-09-09T04:53:27;95685.44;;;19.73;100.00
18167;BME280;9208;42.688;23.404;2022-09-09T04:56:07;95677.94;;;19.81;100.00
18167;BME280;9208;42.688;23.404;2022-09-09T04:58:33;95669.91;;;19.78;100.00
18167;BME280;9208;42.688;23.404;2022-09-09T05:01:06;95671.19;;;19.77;100.00
18167;BME280;9208;42.688;23.404;2022-09-09T05:03:32;95670.88;;;19.80;100.00
18167;BME280;9208;42.688;23.404;2022-09-09T05:06:04;95665.41;;;19.88;100.00
18167;BME280;9208;42.688;23.404;2022-09-09T05:08:30;95671.94;;;19.90;100.00
18167;BME280;9208;42.688;23.404;2022-09-09T05:10:56;95647.56;;;19.96;100.00
18167;BME280;9208;42.688;23.404;2022-09-09T05:13:21;95651.19;;;20.04;100.00
18167;BME280;9208;42.688;23.404;2022-09-09T05:15:54;95661.53;;;20.09;100.00
18167;BME280;9208;42.688;23.404;2022-09-09T05:18:20;95656.59;;;20.15;100.00
18167;BME280;9208;42.688;23.404;2022-09-09T05:20:45;95658.31;;;20.18;100.00
18167;BME280;9208;42.688;23.404;2022-09-09T05:23:10;95658.50;;;20.20;100.00
18167;BME280;9208;42.688;23.404;2022-09-09T05:25:37;95657.66;;;20.25;100.00
18167;BME280;9208;42.688;23.404;2022-09-09T05:28:03;95659.69;;;20.25;100.00
18167;BME280;9208;42.688;23.404;2022-09-09T05:30:28;95661.81;;;20.32;100.00
18167;BME280;9208;42.688;23.404;2022-09-09T05:32:56;95663.00;;;20.36;100.00
18167;BME280;9208;42.688;23.404;2022-09-09T05:35:21;95653.88;;;20.36;100.00
18167;BME280;9208;42.688;23.404;2022-09-09T05:37:48;95643.28;;;20.34;98.49
18167;BME280;9208;42.688;23.404;2022-09-09T05:40:14;95648.94;;;20.42;97.95
18167;BME280;9208;42.688;23.404;2022-09-09T05:42:40;95658.69;;;20.48;96.78
18167;BME280;9208;42.688;23.404;2022-09-09T05:45:07;95657.97;;;20.48;96.37
18167;BME280;9208;42.688;23.404;2022-09-09T05:47:34;95660.22;;;20.49;96.33
18167;BME280;9208;42.688;23.404;2022-09-09T05:50:00;95664.03;;;20.59;95.63
18167;BME280;9208;42.688;23.404;2022-09-09T05:52:26;95668.13;;;20.58;96.03
18167;BME280;9208;42.688;23.404;2022-09-09T05:54:52;95669.19;;;20.55;96.80
18167;BME280;9208;42.688;23.404;2022-09-09T05:57:19;95666.28;;;20.61;96.63
18167;BME280;9208;42.688;23.404;2022-09-09T05:59:45;95659.75;;;20.58;96.93
18167;BME280;9208;42.688;23.404;2022-09-09T06:02:10;95662.56;;;20.58;96.88
18167;BME280;9208;42.688;23.404;2022-09-09T06:04:37;95669.28;;;20.63;96.37
18167;BME280;9208;42.688;23.404;2022-09-09T06:07:04;95665.19;;;20.64;96.31
18167;BME280;9208;42.688;23.404;2022-09-09T06:09:30;95679.56;;;20.68;96.00
18167;BME280;9208;42.688;23.404;2022-09-09T06:11:55;95688.88;;;20.70;95.38
18167;BME280;9208;42.688;23.404;2022-09-09T06:14:22;95680.94;;;20.74;94.93
18167;BME280;9208;42.688;23.404;2022-09-09T06:16:48;95688.00;;;20.75;95.05
18167;BME280;9208;42.688;23.404;2022-09-09T06:19:13;95679.00;;;20.82;94.84
18167;BME280;9208;42.688;23.404;2022-09-09T06:21:39;95675.66;;;20.84;94.68
18167;BME280;9208;42.688;23.404;2022-09-09T06:24:06;95676.81;;;20.88;94.43
18167;BME280;9208;42.688;23.404;2022-09-09T06:26:37;95678.22;;;20.95;94.20
18167;BME280;9208;42.688;23.404;2022-09-09T06:29:05;95673.59;;;20.97;93.67
18167;BME280;9208;42.688;23.404;2022-09-09T06:31:33;95689.25;;;21.00;93.77
18167;BME280;9208;42.688;23.404;2022-09-09T06:34:00;95684.41;;;21.01;93.69
18167;BME280;9208;42.688;23.404;2022-09-09T06:36:29;95676.16;;;21.08;93.67
18167;BME280;9208;42.688;23.404;2022-09-09T06:38:55;95668.00;;;21.10;93.55
18167;BME280;9208;42.688;23.404;2022-09-09T06:41:24;95662.28;;;21.16;93.42
18167;BME280;9208;42.688;23.404;2022-09-09T06:43:51;95661.06;;;21.24;93.15
18167;BME280;9208;42.688;23.404;2022-09-09T06:46:25;95667.81;;;21.29;93.03
18167;BME280;9208;42.688;23.404;2022-09-09T06:48:54;95663.03;;;21.37;92.46
18167;BME280;9208;42.688;23.404;2022-09-09T06:51:34;95656.25;;;21.45;92.57
18167;BME280;9208;42.688;23.404;2022-09-09T06:54:01;95660.75;;;21.48;92.45
18167;BME280;9208;42.688;23.404;2022-09-09T06:56:32;95666.94;;;21.54;91.99
18167;BME280;9208;42.688;23.404;2022-09-09T06:59:01;95678.28;;;21.56;92.33
18167;BME280;9208;42.688;23.404;2022-09-09T07:01:29;95676.13;;;21.62;91.84
18167;BME280;9208;42.688;23.404;2022-09-09T07:03:56;95685.31;;;21.70;91.40
18167;BME280;9208;42.688;23.404;2022-09-09T07:06:35;95674.56;;;21.74;91.00
18167;BME280;9208;42.688;23.404;2022-09-09T07:09:03;95677.63;;;21.84;90.70
18167;BME280;9208;42.688;23.404;2022-09-09T07:11:44;95682.13;;;21.87;90.60
18167;BME280;9208;42.688;23.404;2022-09-09T07:14:11;95678.09;;;21.95;90.19
18167;BME280;9208;42.688;23.404;2022-09-09T07:16:40;95669.22;;;22.04;89.78
18167;BME280;9208;42.688;23.404;2022-09-09T07:19:07;95663.31;;;22.15;88.77
18167;BME280;9208;42.688;23.404;2022-09-09T07:21:32;95665.63;;;22.24;88.13
18167;BME280;9208;42.688;23.404;2022-09-09T07:23:59;95668.31;;;22.37;87.54
18167;BME280;9208;42.688;23.404;2022-09-09T07:26:29;95666.53;;;22.47;87.03
18167;BME280;9208;42.688;23.404;2022-09-09T07:28:55;95668.81;;;22.56;86.56
18167;BME280;9208;42.688;23.404;2022-09-09T07:31:30;95655.59;;;22.64;86.03
18167;BME280;9208;42.688;23.404;2022-09-09T07:33:56;95661.25;;;22.72;85.33
18167;BME280;9208;42.688;23.404;2022-09-09T07:36:28;95662.56;;;22.78;84.52
18167;BME280;9208;42.688;23.404;2022-09-09T07:39:02;95661.09;;;22.85;84.27
18167;BME280;9208;42.688;23.404;2022-09-09T07:41:34;95658.91;;;22.91;83.72
18167;BME280;9208;42.688;23.404;2022-09-09T07:44:04;95653.47;;;22.93;83.49
18167;BME280;9208;42.688;23.404;2022-09-09T07:46:31;95669.00;;;23.01;82.87
18167;BME280;9208;42.688;23.404;2022-09-09T07:48:57;95665.28;;;23.06;82.28
18167;BME280;9208;42.688;23.404;2022-09-09T07:51:45;95679.47;;;23.16;81.90
18167;BME280;9208;42.688;23.404;2022-09-09T07:54:13;95680.66;;;23.28;81.36
18167;BME280;9208;42.688;23.404;2022-09-09T07:56:40;95677.50;;;23.39;80.71
18167;BME280;9208;42.688;23.404;2022-09-09T07:59:07;95672.28;;;23.43;80.19
18167;BME280;9208;42.688;23.404;2022-09-09T08:01:36;95665.75;;;23.48;80.14
18167;BME280;9208;42.688;23.404;2022-09-09T08:04:06;95658.88;;;23.56;79.97
18167;BME280;9208;42.688;23.404;2022-09-09T08:06:38;95658.69;;;23.62;79.80
18167;BME280;9208;42.688;23.404;2022-09-09T08:09:06;95659.63;;;23.64;80.04
18167;BME280;9208;42.688;23.404;2022-09-09T08:11:32;95661.13;;;23.73;79.55
18167;BME280;9208;42.688;23.404;2022-09-09T08:13:59;95644.50;;;23.67;79.10
18167;BME280;9208;42.688;23.404;2022-09-09T08:16:27;95659.25;;;23.83;78.57
18167;BME280;9208;42.688;23.404;2022-09-09T08:18:53;95666.16;;;23.89;78.41
18167;BME280;9208;42.688;23.404;2022-09-09T08:21:22;95665.06;;;24.00;77.96
18167;BME280;9208;42.688;23.404;2022-09-09T08:23:50;95664.31;;;24.07;77.64
18167;BME280;9208;42.688;23.404;2022-09-09T08:26:22;95660.94;;;24.08;77.45
18167;BME280;9208;42.688;23.404;2022-09-09T08:28:52;95660.00;;;24.13;77.13
18167;BME280;9208;42.688;23.404;2022-09-09T08:31:23;95656.81;;;24.24;76.94
18167;BME280;9208;42.688;23.404;2022-09-09T08:33:49;95657.16;;;24.36;76.34
18167;BME280;9208;42.688;23.404;2022-09-09T08:36:17;95670.19;;;24.48;75.48
18167;BME280;9208;42.688;23.404;2022-09-09T08:38:43;95668.31;;;24.58;75.03
18167;BME280;9208;42.688;23.404;2022-09-09T08:41:26;95664.03;;;24.65;74.47
18167;BME280;9208;42.688;23.404;2022-09-09T08:52:15;95655.16;;;24.83;73.62
18167;BME280;9208;42.688;23.404;2022-09-09T08:54:41;95648.41;;;24.86;73.46
18167;BME280;9208;42.688;23.404;2022-09-09T08:57:13;95660.34;;;24.94;73.29
18167;BME280;9208;42.688;23.404;2022-09-09T08:59:40;95648.75;;;24.98;73.11
18167;BME280;9208;42.688;23.404;2022-09-09T09:02:26;95650.03;;;25.04;73.00
18167;BME280;9208;42.688;23.404;2022-09-09T09:05:06;95650.38;;;25.08;72.86
18167;BME280;9208;42.688;23.404;2022-09-09T09:08:17;95655.19;;;25.15;72.81
18167;BME280;9208;42.688;23.404;2022-09-09T09:13:12;95654.81;;;25.19;72.62
18167;BME280;9208;42.688;23.404;2022-09-09T09:15:40;95647.84;;;25.27;72.32
18167;BME280;9208;42.688;23.404;2022-09-09T09:18:10;95655.66;;;25.36;72.13
18167;BME280;9208;42.688;23.404;2022-09-09T09:20:49;95652.44;;;25.40;71.76
18167;BME280;9208;42.688;23.404;2022-09-09T09:23:31;95644.31;;;25.51;71.61
18167;BME280;9208;42.688;23.404;2022-09-09T09:26:00;95647.88;;;25.52;71.54
18167;BME280;9208;42.688;23.404;2022-09-09T09:28:31;95646.50;;;25.60;71.26
18167;BME280;9208;42.688;23.404;2022-09-09T09:31:01;95648.31;;;25.65;70.97
18167;BME280;9208;42.688;23.404;2022-09-09T09:36:07;95652.19;;;25.77;70.31
18167;BME280;9208;42.688;23.404;2022-09-09T09:38:34;95652.69;;;25.83;70.18
18167;BME280;9208;42.688;23.404;2022-09-09T09:41:00;95645.56;;;25.83;69.94
18167;BME280;9208;42.688;23.404;2022-09-09T09:43:37;95648.31;;;25.90;69.47
18167;BME280;9208;42.688;23.404;2022-09-09T09:46:05;95645.16;;;25.94;69.90
18167;BME280;9208;42.688;23.404;2022-09-09T09:48:43;95644.16;;;25.99;69.85
18167;BME280;9208;42.688;23.404;2022-09-09T09:51:13;95639.13;;;25.97;69.64
18167;BME280;9208;42.688;23.404;2022-09-09T09:53:41;95631.94;;;26.04;69.62
18167;BME280;9208;42.688;23.404;2022-09-09T09:56:10;95626.66;;;26.08;69.53
18167;BME280;9208;42.688;23.404;2022-09-09T09:58:50;95628.94;;;26.02;69.52
18167;BME280;9208;42.688;23.404;2022-09-09T10:01:31;95619.88;;;26.11;69.19
18167;BME280;9208;42.688;23.404;2022-09-09T10:06:38;95622.38;;;26.24;68.71
18167;BME280;9208;42.688;23.404;2022-09-09T10:09:28;95626.34;;;26.21;69.30
18167;BME280;9208;42.688;23.404;2022-09-09T10:18:01;95631.38;;;26.22;69.58
18167;BME280;9208;42.688;23.404;2022-09-09T10:20:41;95629.09;;;26.28;69.27
18167;BME280;9208;42.688;23.404;2022-09-09T10:26:48;95645.44;;;26.39;68.62
18167;BME280;9208;42.688;23.404;2022-09-09T10:31:23;95645.72;;;26.34;68.15
18167;BME280;9208;42.688;23.404;2022-09-09T10:34:16;95638.00;;;26.34;68.20
18167;BME280;9208;42.688;23.404;2022-09-09T10:36:47;95645.09;;;26.35;68.05
18167;BME280;9208;42.688;23.404;2022-09-09T10:39:36;95643.97;;;26.38;67.94
18167;BME280;9208;42.688;23.404;2022-09-09T10:42:16;95645.44;;;26.39;68.12
18167;BME280;9208;42.688;23.404;2022-09-09T10:45:10;95642.06;;;26.41;68.03
18167;BME280;9208;42.688;23.404;2022-09-09T10:56:23;95637.00;;;26.39;68.97
18167;BME280;9208;42.688;23.404;2022-09-09T10:58:58;95629.91;;;26.38;69.09
18167;BME280;9208;42.688;23.404;2022-09-09T11:01:40;95635.69;;;26.40;69.32
18167;BME280;9208;42.688;23.404;2022-09-09T11:04:16;95633.63;;;26.41;69.20
18167;BME280;9208;42.688;23.404;2022-09-09T11:06:48;95627.59;;;26.44;69.41
18167;BME280;9208;42.688;23.404;2022-09-09T11:09:19;95626.53;;;26.40;69.77
18167;BME280;9208;42.688;23.404;2022-09-09T11:11:52;95629.34;;;26.40;69.87
18167;BME280;9208;42.688;23.404;2022-09-09T11:20:01;95617.75;;;26.36;70.27
18167;BME280;9208;42.688;23.404;2022-09-09T11:22:33;95617.59;;;26.34;70.49
18167;BME280;9208;42.688;23.404;2022-09-09T11:30:25;95593.28;;;26.29;70.68
18167;BME280;9208;42.688;23.404;2022-09-09T11:36:16;95589.06;;;26.37;70.98
18167;BME280;9208;42.688;23.404;2022-09-09T11:38:51;95579.72;;;26.35;71.61
18167;BME280;9208;42.688;23.404;2022-09-09T11:41:18;95568.72;;;26.29;71.71
18167;BME280;9208;42.688;23.404;2022-09-09T11:43:48;95566.41;;;26.35;71.57
18167;BME280;9208;42.688;23.404;2022-09-09T11:46:15;95553.53;;;26.32;72.24
18167;BME280;9208;42.688;23.404;2022-09-09T11:48:44;95555.25;;;26.28;72.39
18167;BME280;9208;42.688;23.404;2022-09-09T11:51:26;95542.09;;;26.30;72.24
18167;BME280;9208;42.688;23.404;2022-09-09T11:54:31;95531.75;;;26.33;72.12
18167;BME280;9208;42.688;23.404;2022-09-09T11:56:57;95508.78;;;26.27;73.20
18167;BME280;9208;42.688;23.404;2022-09-09T11:59:24;95503.75;;;26.25;73.33
18167;BME280;9208;42.688;23.404;2022-09-09T12:04:29;95516.22;;;26.32;72.99
18167;BME280;9208;42.688;23.404;2022-09-09T12:06:59;95525.13;;;26.38;72.99
18167;BME280;9208;42.688;23.404;2022-09-09T12:09:44;95539.53;;;26.42;73.05
18167;BME280;9208;42.688;23.404;2022-09-09T12:17:31;95529.09;;;26.52;73.02
18167;BME280;9208;42.688;23.404;2022-09-09T12:22:48;95513.53;;;26.51;73.56
18167;BME280;9208;42.688;23.404;2022-09-09T12:25:47;95504.72;;;26.54;74.06
18167;BME280;9208;42.688;23.404;2022-09-09T12:30:49;95504.63;;;26.62;74.00
18167;BME280;9208;42.688;23.404;2022-09-09T12:33:18;95507.91;;;26.68;73.74
18167;BME280;9208;42.688;23.404;2022-09-09T12:35:51;95512.84;;;26.77;73.58
18167;BME280;9208;42.688;23.404;2022-09-09T12:38:35;95502.25;;;26.85;73.23
18167;BME280;9208;42.688;23.404;2022-09-09T12:41:01;95506.84;;;26.90;72.96
18167;BME280;9208;42.688;23.404;2022-09-09T12:43:28;95497.66;;;26.89;72.75
18167;BME280;9208;42.688;23.404;2022-09-09T12:45:57;95488.91;;;26.85;73.50
18167;BME280;9208;42.688;23.404;2022-09-09T12:48:32;95488.31;;;26.87;73.38
18167;BME280;9208;42.688;23.404;2022-09-09T12:51:00;95490.28;;;26.94;73.09
18167;BME280;9208;42.688;23.404;2022-09-09T12:55:59;95477.97;;;26.89;73.82
18167;BME280;9208;42.688;23.404;2022-09-09T12:58:26;95482.44;;;26.92;74.09
18167;BME280;9208;42.688;23.404;2022-09-09T13:00:55;95478.72;;;26.90;74.23
18167;BME280;9208;42.688;23.404;2022-09-09T13:03:24;95469.09;;;26.93;74.24
18167;BME280;9208;42.688;23.404;2022-09-09T13:05:54;95469.09;;;26.93;74.62
18167;BME280;9208;42.688;23.404;2022-09-09T13:08:23;95466.91;;;27.01;74.24
18167;BME280;9208;42.688;23.404;2022-09-09T13:10:56;95477.44;;;27.00;74.22
18167;BME280;9208;42.688;23.404;2022-09-09T13:13:39;95475.50;;;27.03;74.30
18167;BME280;9208;42.688;23.404;2022-09-09T13:16:15;95470.03;;;27.05;74.13
18167;BME280;9208;42.688;23.404;2022-09-09T13:18:43;95465.16;;;27.05;74.04
18167;BME280;9208;42.688;23.404;2022-09-09T13:21:08;95468.28;;;27.09;74.42
18167;BME280;9208;42.688;23.404;2022-09-09T13:23:36;95457.88;;;27.02;74.97
18167;BME280;9208;42.688;23.404;2022-09-09T13:26:25;95459.41;;;27.13;74.92
18167;BME280;9208;42.688;23.404;2022-09-09T13:28:55;95458.69;;;27.12;74.78
18167;BME280;9208;42.688;23.404;2022-09-09T13:31:36;95456.72;;;27.05;75.07
18167;BME280;9208;42.688;23.404;2022-09-09T13:34:28;95449.91;;;27.08;74.84
18167;BME280;9208;42.688;23.404;2022-09-09T13:37:02;95442.06;;;27.07;74.91
18167;BME280;9208;42.688;23.404;2022-09-09T13:39:32;95437.78;;;27.06;75.14
18167;BME280;9208;42.688;23.404;2022-09-09T13:41:59;95440.59;;;27.06;74.91
18167;BME280;9208;42.688;23.404;2022-09-09T13:44:30;95440.09;;;27.00;76.10
18167;BME280;9208;42.688;23.404;2022-09-09T13:47:01;95438.03;;;27.00;75.93
18167;BME280;9208;42.688;23.404;2022-09-09T13:49:29;95440.41;;;27.04;75.57
18167;BME280;9208;42.688;23.404;2022-09-09T13:54:37;95433.75;;;27.09;75.03
18167;BME280;9208;42.688;23.404;2022-09-09T13:57:02;95425.19;;;27.07;75.35
18167;BME280;9208;42.688;23.404;2022-09-09T13:59:29;95425.19;;;27.07;75.87
18167;BME280;9208;42.688;23.404;2022-09-09T14:01:55;95426.78;;;27.10;75.81
18167;BME280;9208;42.688;23.404;2022-09-09T14:04:21;95420.00;;;27.03;76.42
18167;BME280;9208;42.688;23.404;2022-09-09T14:06:47;95426.34;;;27.04;76.50
18167;BME280;9208;42.688;23.404;2022-09-09T14:09:15;95420.72;;;27.04;76.07
18167;BME280;9208;42.688;23.404;2022-09-09T14:11:41;95420.72;;;27.04;76.39
18167;BME280;9208;42.688;23.404;2022-09-09T14:14:07;95422.81;;;27.03;77.17
18167;BME280;9208;42.688;23.404;2022-09-09T14:16:33;95417.59;;;27.00;76.75
18167;BME280;9208;42.688;23.404;2022-09-09T14:18:59;95413.91;;;27.07;76.57
18167;BME280;9208;42.688;23.404;2022-09-09T14:21:25;95407.84;;;27.10;75.79
18167;BME280;9208;42.688;23.404;2022-09-09T14:23:52;95408.91;;;27.15;75.26
18167;BME280;9208;42.688;23.404;2022-09-09T14:26:21;95417.84;;;27.21;74.94
18167;BME280;9208;42.688;23.404;2022-09-09T14:28:47;95407.91;;;27.20;75.46
18167;BME280;9208;42.688;23.404;2022-09-09T14:31:13;95402.28;;;27.20;75.26
18167;BME280;9208;42.688;23.404;2022-09-09T14:33:39;95415.78;;;27.21;73.99
18167;BME280;9208;42.688;23.404;2022-09-09T14:36:05;95419.75;;;27.28;73.73
18167;BME280;9208;42.688;23.404;2022-09-09T14:38:35;95422.88;;;27.32;73.25
18167;BME280;9208;42.688;23.404;2022-09-09T14:41:09;95426.59;;;27.34;72.07
18167;BME280;9208;42.688;23.404;2022-09-09T14:43:35;95414.44;;;27.32;73.27
18167;BME280;9208;42.688;23.404;2022-09-09T14:46:15;95412.41;;;27.42;74.11
18167;BME280;9208;42.688;23.404;2022-09-09T14:48:41;95408.69;;;27.49;74.05
18167;BME280;9208;42.688;23.404;2022-09-09T14:51:26;95408.84;;;27.51;73.30
18167;BME280;9208;42.688;23.404;2022-09-09T14:53:57;95404.69;;;27.52;72.71
18167;BME280;9208;42.688;23.404;2022-09-09T14:56:25;95411.94;;;27.55;72.34
18167;BME280;9208;42.688;23.404;2022-09-09T14:58:53;95414.94;;;27.57;71.62
18167;BME280;9208;42.688;23.404;2022-09-09T15:01:20;95420.09;;;27.60;71.15
18167;BME280;9208;42.688;23.404;2022-09-09T15:03:52;95419.38;;;27.60;71.53
18167;BME280;9208;42.688;23.404;2022-09-09T15:06:19;95412.09;;;27.57;72.11
18167;BME280;9208;42.688;23.404;2022-09-09T15:08:46;95418.59;;;27.50;71.30